createdAt,value
2023-05-08T00:00:37.173Z,25.60
2023-05-08T00:01:37.161Z,25.57
2023-05-08T00:02:37.211Z,25.56
2023-05-08T00:03:37.275Z,25.55
2023-05-08T00:04:37.203Z,25.55
2023-05-08T00:05:37.169Z,25.55
2023-05-08T00:06:37.154Z,25.55
2023-05-08T00:07:37.186Z,25.55
2023-05-08T00:08:37.159Z,25.56
2023-05-08T00:09:37.203Z,25.54
2023-05-08T00:10:37.200Z,25.55
2023-05-08T00:11:37.206Z,25.54
2023-05-08T00:12:37.212Z,25.54
2023-05-08T00:13:37.236Z,25.53
2023-05-08T00:14:37.233Z,25.54
2023-05-08T00:15:37.249Z,25.54
2023-05-08T00:16:37.341Z,25.55
2023-05-08T00:17:37.308Z,25.56
2023-05-08T00:18:37.268Z,25.56
2023-05-08T00:19:37.277Z,25.56
2023-05-08T00:20:37.281Z,25.57
2023-05-08T00:21:37.306Z,25.57
2023-05-08T00:22:37.263Z,25.59
2023-05-08T00:23:37.298Z,25.59
2023-05-08T00:24:37.284Z,25.59
2023-05-08T00:25:37.292Z,25.60
2023-05-08T00:26:37.278Z,25.61
2023-05-08T00:27:37.316Z,25.62
2023-05-08T00:28:37.366Z,25.63
2023-05-08T00:29:37.346Z,25.64
2023-05-08T00:30:37.332Z,25.65
2023-05-08T00:31:37.370Z,25.66
2023-05-08T00:32:37.382Z,25.66
2023-05-08T00:33:37.350Z,25.68
2023-05-08T00:34:37.378Z,25.69
2023-05-08T00:35:37.393Z,25.70
2023-05-08T00:36:37.414Z,25.71
2023-05-08T00:37:37.427Z,25.72
2023-05-08T00:38:37.463Z,25.73
2023-05-08T00:39:37.516Z,25.75
2023-05-08T00:40:37.509Z,25.75
2023-05-08T00:41:37.483Z,25.75
2023-05-08T00:42:37.523Z,25.75
2023-05-08T00:43:37.558Z,25.74
2023-05-08T00:44:37.538Z,25.71
2023-05-08T00:45:37.561Z,25.70
2023-05-08T00:46:37.559Z,25.68
2023-05-08T00:47:37.562Z,25.67
2023-05-08T00:48:37.560Z,25.66
2023-05-08T00:49:37.568Z,25.65
2023-05-08T00:50:37.610Z,25.65
2023-05-08T00:51:37.585Z,25.66
2023-05-08T00:52:37.631Z,25.65
2023-05-08T00:53:37.613Z,25.66
2023-05-08T00:54:37.632Z,25.65
2023-05-08T00:55:37.597Z,25.66
2023-05-08T00:56:37.641Z,25.67
2023-05-08T00:57:37.608Z,25.68
2023-05-08T00:58:37.612Z,25.68
2023-05-08T00:59:37.639Z,25.68
2023-05-08T01:00:37.636Z,25.68
2023-05-08T01:01:37.655Z,25.68
2023-05-08T01:02:37.756Z,25.68
2023-05-08T01:03:37.951Z,25.68
2023-05-08T01:04:37.589Z,25.67
2023-05-08T01:05:37.600Z,25.68
2023-05-08T01:06:37.628Z,25.68
2023-05-08T01:07:37.645Z,25.69
2023-05-08T01:08:37.626Z,25.70
2023-05-08T01:09:37.603Z,25.70
2023-05-08T01:10:37.589Z,25.70
2023-05-08T01:11:37.570Z,25.71
2023-05-08T01:12:37.728Z,25.71
2023-05-08T01:13:37.635Z,25.73
2023-05-08T01:14:37.637Z,25.73
2023-05-08T01:15:37.768Z,25.74
2023-05-08T01:16:37.621Z,25.75
2023-05-08T01:17:37.747Z,25.75
2023-05-08T01:18:37.680Z,25.77
2023-05-08T01:19:37.699Z,25.77
2023-05-08T01:20:37.672Z,25.77
2023-05-08T01:21:37.675Z,25.79
2023-05-08T01:22:37.746Z,25.79
2023-05-08T01:23:37.761Z,25.79
2023-05-08T01:24:37.727Z,25.80
2023-05-08T01:25:37.761Z,25.81
2023-05-08T01:26:37.775Z,25.81
2023-05-08T01:27:37.790Z,25.82
2023-05-08T01:28:37.835Z,25.84
2023-05-08T01:29:37.863Z,25.84
2023-05-08T01:30:37.866Z,25.84
2023-05-08T01:31:37.880Z,25.86
2023-05-08T01:32:37.924Z,25.86
2023-05-08T01:33:38.003Z,25.86
2023-05-08T01:34:37.964Z,25.87
2023-05-08T01:35:37.985Z,25.87
2023-05-08T01:36:38.043Z,25.87
2023-05-08T01:37:38.056Z,25.88
2023-05-08T01:38:38.049Z,25.87
2023-05-08T01:39:38.029Z,25.88
2023-05-08T01:40:38.055Z,25.87
2023-05-08T01:41:38.115Z,25.86
2023-05-08T01:42:38.129Z,25.86
2023-05-08T01:43:38.126Z,25.85
2023-05-08T01:44:38.194Z,25.84
2023-05-08T01:45:38.184Z,25.84
2023-05-08T01:46:38.176Z,25.83
2023-05-08T01:47:38.240Z,25.83
2023-05-08T01:48:38.162Z,25.83
2023-05-08T01:49:38.183Z,25.83
2023-05-08T01:50:38.180Z,25.82
2023-05-08T01:51:38.229Z,25.81
2023-05-08T01:52:38.186Z,25.82
2023-05-08T01:53:38.171Z,25.82
2023-05-08T01:54:38.190Z,25.81
2023-05-08T01:55:38.169Z,25.80
2023-05-08T01:56:38.140Z,25.81
2023-05-08T01:57:38.152Z,25.81
2023-05-08T01:58:38.162Z,25.81
2023-05-08T01:59:38.182Z,25.81
2023-05-08T02:00:38.230Z,25.81
2023-05-08T02:01:38.231Z,25.82
2023-05-08T02:02:38.370Z,25.83
2023-05-08T02:03:38.334Z,25.83
2023-05-08T02:04:38.274Z,25.83
2023-05-08T02:05:38.309Z,25.84
2023-05-08T02:06:38.320Z,25.84
2023-05-08T02:07:38.345Z,25.86
2023-05-08T02:08:38.505Z,25.86
2023-05-08T02:09:38.385Z,25.87
2023-05-08T02:10:38.396Z,25.87
2023-05-08T02:11:38.374Z,25.88
2023-05-08T02:12:38.429Z,25.89
2023-05-08T02:13:38.430Z,25.89
2023-05-08T02:14:38.414Z,25.89
2023-05-08T02:15:38.463Z,25.89
2023-05-08T02:16:38.470Z,25.88
2023-05-08T02:17:38.476Z,25.88
2023-05-08T02:18:38.460Z,25.89
2023-05-08T02:19:38.468Z,25.89
2023-05-08T02:20:38.453Z,25.89
2023-05-08T02:21:38.481Z,25.88
2023-05-08T02:22:38.478Z,25.89
2023-05-08T02:23:38.471Z,25.90
2023-05-08T02:24:38.501Z,25.90
2023-05-08T02:25:38.484Z,25.89
2023-05-08T02:26:38.509Z,25.89
2023-05-08T02:27:38.465Z,25.89
2023-05-08T02:28:38.499Z,25.90
2023-05-08T02:29:38.511Z,25.90
2023-05-08T02:30:38.525Z,25.90
2023-05-08T02:31:38.589Z,25.90
2023-05-08T02:32:38.618Z,25.90
2023-05-08T02:33:38.559Z,25.91
2023-05-08T02:34:45.171Z,25.90
2023-05-08T02:35:39.554Z,25.91
2023-05-08T02:36:38.518Z,25.91
2023-05-08T02:37:38.447Z,25.91
2023-05-08T02:38:38.447Z,25.91
2023-05-08T02:39:38.388Z,25.91
2023-05-08T02:40:38.405Z,25.91
2023-05-08T02:41:38.373Z,25.90
2023-05-08T02:42:38.374Z,25.90
2023-05-08T02:43:38.308Z,25.90
2023-05-08T02:44:38.313Z,25.91
2023-05-08T02:45:38.375Z,25.91
2023-05-08T02:46:38.362Z,25.90
2023-05-08T02:47:38.277Z,25.91
2023-05-08T02:48:38.211Z,25.91
2023-05-08T02:49:38.256Z,25.90
2023-05-08T02:50:38.272Z,25.89
2023-05-08T02:51:38.279Z,25.89
2023-05-08T02:52:38.273Z,25.89
2023-05-08T02:53:38.267Z,25.88
2023-05-08T02:54:38.279Z,25.88
2023-05-08T02:55:38.338Z,25.87
2023-05-08T02:56:38.333Z,25.86
2023-05-08T02:57:38.318Z,25.86
2023-05-08T02:58:38.392Z,25.86
2023-05-08T02:59:38.378Z,25.86
2023-05-08T03:00:38.364Z,25.85
2023-05-08T03:01:38.418Z,25.85
2023-05-08T03:02:38.472Z,25.85
2023-05-08T03:03:38.447Z,25.86
2023-05-08T03:04:38.435Z,25.86
2023-05-08T03:05:38.466Z,25.85
2023-05-08T03:06:38.462Z,25.86
2023-05-08T03:07:38.483Z,25.87
2023-05-08T03:08:38.510Z,25.88
2023-05-08T03:09:38.589Z,25.87
2023-05-08T03:10:38.592Z,25.88
2023-05-08T03:11:38.615Z,25.89
2023-05-08T03:12:40.569Z,25.89
2023-05-08T03:13:38.566Z,25.89
2023-05-08T03:14:38.576Z,25.91
2023-05-08T03:15:38.542Z,25.92
2023-05-08T03:16:38.475Z,25.92
2023-05-08T03:17:38.542Z,25.92
2023-05-08T03:18:38.437Z,25.93
2023-05-08T03:19:38.409Z,25.93
2023-05-08T03:20:38.364Z,25.93
2023-05-08T03:21:38.342Z,25.94
2023-05-08T03:22:38.277Z,25.94
2023-05-08T03:23:38.243Z,25.95
2023-05-08T03:24:38.233Z,25.94
2023-05-08T03:25:38.811Z,25.94
2023-05-08T03:26:38.189Z,25.95
2023-05-08T03:27:38.173Z,25.95
2023-05-08T03:28:38.249Z,25.95
2023-05-08T03:29:38.127Z,25.95
2023-05-08T03:30:38.091Z,25.96
2023-05-08T03:31:38.078Z,25.96
2023-05-08T03:32:38.071Z,25.95
2023-05-08T03:33:38.021Z,25.97
2023-05-08T03:34:37.978Z,25.96
2023-05-08T03:35:37.948Z,25.96
2023-05-08T03:36:37.957Z,25.96
2023-05-08T03:37:37.932Z,25.96
2023-05-08T03:38:37.880Z,25.97
2023-05-08T03:39:37.880Z,25.97
2023-05-08T03:40:37.832Z,25.98
2023-05-08T03:41:37.818Z,25.98
2023-05-08T03:42:37.768Z,25.99
2023-05-08T03:43:37.773Z,25.99
2023-05-08T03:44:37.759Z,26.00
2023-05-08T03:45:37.698Z,26.00
2023-05-08T03:46:37.668Z,26.00
2023-05-08T03:47:37.651Z,26.01
2023-05-08T03:48:37.600Z,26.01
2023-05-08T03:49:37.554Z,26.01
2023-05-08T03:50:37.524Z,26.02
2023-05-08T03:51:37.506Z,26.03
2023-05-08T03:52:37.525Z,26.03
2023-05-08T03:53:37.577Z,26.03
2023-05-08T03:54:37.588Z,26.04
2023-05-08T03:55:37.609Z,26.03
2023-05-08T03:56:37.635Z,26.02
2023-05-08T03:57:37.669Z,26.02
2023-05-08T03:58:37.688Z,26.02
2023-05-08T03:59:37.678Z,26.01
2023-05-08T04:00:37.656Z,26.03
2023-05-08T04:01:37.710Z,26.02
2023-05-08T04:02:38.815Z,26.02
2023-05-08T04:03:37.848Z,26.02
2023-05-08T04:04:37.642Z,26.02
2023-05-08T04:05:37.878Z,26.02
2023-05-08T04:06:48.720Z,26.03
2023-05-08T04:07:38.613Z,26.02
2023-05-08T04:08:37.493Z,26.03
2023-05-08T04:09:37.500Z,26.03
2023-05-08T04:10:37.426Z,26.04
2023-05-08T04:11:37.386Z,26.05
2023-05-08T04:12:37.399Z,26.04
2023-05-08T04:13:37.342Z,26.05
2023-05-08T04:14:37.289Z,26.06
2023-05-08T04:15:37.260Z,26.05
2023-05-08T04:16:37.280Z,26.05
2023-05-08T04:17:37.260Z,26.05
2023-05-08T04:18:37.218Z,26.04
2023-05-08T04:19:37.220Z,26.04
2023-05-08T04:20:37.221Z,26.04
2023-05-08T04:21:37.266Z,26.04
2023-05-08T04:22:37.388Z,26.04
2023-05-08T04:23:37.307Z,26.04
2023-05-08T04:24:37.346Z,26.04
2023-05-08T04:25:37.324Z,26.04
2023-05-08T04:26:37.371Z,26.04
2023-05-08T04:27:37.420Z,26.04
2023-05-08T04:28:37.421Z,26.04
2023-05-08T04:29:37.469Z,26.04
2023-05-08T04:30:37.478Z,26.05
2023-05-08T04:31:37.521Z,26.04
2023-05-08T04:32:38.886Z,26.04
2023-05-08T04:33:37.494Z,26.04
2023-05-08T04:34:37.442Z,26.03
2023-05-08T04:35:37.393Z,26.03
2023-05-08T04:36:37.406Z,26.02
2023-05-08T04:37:37.380Z,26.00
2023-05-08T04:38:37.347Z,26.00
2023-05-08T04:39:37.309Z,25.99
2023-05-08T04:40:37.264Z,25.98
2023-05-08T04:41:37.275Z,25.98
2023-05-08T04:42:37.195Z,25.97
2023-05-08T04:43:37.194Z,25.96
2023-05-08T04:44:37.156Z,25.94
2023-05-08T04:45:37.140Z,25.94
2023-05-08T04:46:37.146Z,25.93
2023-05-08T04:47:37.075Z,25.93
2023-05-08T04:48:37.062Z,25.92
2023-05-08T04:49:36.994Z,25.92
2023-05-08T04:50:36.989Z,25.92
2023-05-08T04:51:36.918Z,25.92
2023-05-08T04:52:36.917Z,25.92
2023-05-08T04:53:36.890Z,25.92
2023-05-08T04:54:36.875Z,25.92
2023-05-08T04:55:36.808Z,25.92
2023-05-08T04:56:36.795Z,25.93
2023-05-08T04:57:36.823Z,25.93
2023-05-08T04:58:36.723Z,25.93
2023-05-08T04:59:36.693Z,25.94
2023-05-08T05:00:43.665Z,25.94
2023-05-08T05:01:36.665Z,25.94
2023-05-08T05:02:36.652Z,25.93
2023-05-08T05:03:36.622Z,25.95
2023-05-08T05:04:36.585Z,25.95
2023-05-08T05:05:38.695Z,25.96
2023-05-08T05:06:36.461Z,25.96
2023-05-08T05:07:36.490Z,25.97
2023-05-08T05:08:36.521Z,25.96
2023-05-08T05:09:36.569Z,25.96
2023-05-08T05:10:36.527Z,25.97
2023-05-08T05:11:36.551Z,25.96
2023-05-08T05:12:36.569Z,25.98
2023-05-08T05:13:36.574Z,25.97
2023-05-08T05:14:36.587Z,25.97
2023-05-08T05:15:36.559Z,25.97
2023-05-08T05:16:36.674Z,25.96
2023-05-08T05:17:36.638Z,25.95
2023-05-08T05:18:36.603Z,25.94
2023-05-08T05:19:36.586Z,25.95
2023-05-08T05:20:36.631Z,25.93
2023-05-08T05:21:36.632Z,25.94
2023-05-08T05:22:36.693Z,25.94
2023-05-08T05:23:36.662Z,25.95
2023-05-08T05:24:36.724Z,25.95
2023-05-08T05:25:36.654Z,25.96
2023-05-08T05:26:36.966Z,25.97
2023-05-08T05:27:36.675Z,25.96
2023-05-08T05:28:36.705Z,25.96
2023-05-08T05:29:36.684Z,25.97
2023-05-08T05:30:36.640Z,25.98
2023-05-08T05:31:36.696Z,25.98
2023-05-08T05:32:36.699Z,25.98
2023-05-08T05:33:36.670Z,25.97
2023-05-08T05:34:36.653Z,25.98
2023-05-08T05:35:36.692Z,25.99
2023-05-08T05:36:36.664Z,26.00
2023-05-08T05:37:36.694Z,26.02
2023-05-08T05:38:36.919Z,26.03
2023-05-08T05:39:36.904Z,26.05
2023-05-08T05:40:36.736Z,26.06
2023-05-08T05:41:36.734Z,26.06
2023-05-08T05:42:36.749Z,26.06
2023-05-08T05:43:36.750Z,26.07
2023-05-08T05:44:36.793Z,26.07
2023-05-08T05:45:43.760Z,26.09
2023-05-08T05:46:36.746Z,26.11
2023-05-08T05:47:36.711Z,26.11
2023-05-08T05:48:36.670Z,26.11
2023-05-08T05:49:36.639Z,26.12
2023-05-08T05:50:36.586Z,26.11
2023-05-08T05:51:36.551Z,26.12
2023-05-08T05:52:36.517Z,26.12
2023-05-08T05:53:36.508Z,26.12
2023-05-08T05:54:36.519Z,26.12
2023-05-08T05:55:36.399Z,26.12
2023-05-08T05:56:36.348Z,26.12
2023-05-08T05:57:36.540Z,26.13
2023-05-08T05:58:36.281Z,26.12
2023-05-08T05:59:36.419Z,26.12
2023-05-08T06:00:37.280Z,26.12
2023-05-08T06:01:36.237Z,26.12
2023-05-08T06:02:36.232Z,26.11
2023-05-08T06:03:36.171Z,26.10
2023-05-08T06:04:36.072Z,26.07
2023-05-08T06:05:36.037Z,26.05
2023-05-08T06:06:35.972Z,26.00
2023-05-08T06:07:35.963Z,25.94
2023-05-08T06:08:35.904Z,25.92
2023-05-08T06:09:36.402Z,25.89
2023-05-08T06:10:35.881Z,25.86
2023-05-08T06:11:35.846Z,25.83
2023-05-08T06:12:35.816Z,25.81
2023-05-08T06:13:35.763Z,25.79
2023-05-08T06:14:35.756Z,25.77
2023-05-08T06:15:35.700Z,25.76
2023-05-08T06:16:35.764Z,25.75
2023-05-08T06:17:35.776Z,25.75
2023-05-08T06:18:35.643Z,25.77
2023-05-08T06:19:36.093Z,25.78
2023-05-08T06:20:35.542Z,25.79
2023-05-08T06:21:35.516Z,25.82
2023-05-08T06:22:35.519Z,25.85
2023-05-08T06:23:35.465Z,25.88
2023-05-08T06:24:35.543Z,25.91
2023-05-08T06:25:35.364Z,25.95
2023-05-08T06:26:35.349Z,25.98
2023-05-08T06:27:35.344Z,26.02
2023-05-08T06:28:35.346Z,26.05
2023-05-08T06:29:35.367Z,26.07
2023-05-08T06:30:35.427Z,26.10
2023-05-08T06:31:35.415Z,26.14
2023-05-08T06:32:35.380Z,26.18
2023-05-08T06:33:35.420Z,26.19
2023-05-08T06:34:36.526Z,26.21
2023-05-08T06:35:35.459Z,26.22
2023-05-08T06:36:35.459Z,26.23
2023-05-08T06:37:35.473Z,26.23
2023-05-08T06:38:35.465Z,26.23
2023-05-08T06:39:35.489Z,26.22
2023-05-08T06:40:35.535Z,26.19
2023-05-08T06:41:35.461Z,26.15
2023-05-08T06:42:35.484Z,26.13
2023-05-08T06:43:35.521Z,26.13
2023-05-08T06:44:35.568Z,26.14
2023-05-08T06:45:35.665Z,26.15
2023-05-08T06:46:35.603Z,26.15
2023-05-08T06:47:35.614Z,26.15
2023-05-08T06:48:35.722Z,26.13
2023-05-08T06:49:35.939Z,26.11
2023-05-08T06:50:35.643Z,26.08
2023-05-08T06:51:35.633Z,26.04
2023-05-08T06:52:35.750Z,26.01
2023-05-08T06:53:36.580Z,25.98
2023-05-08T06:54:35.638Z,25.96
2023-05-08T06:55:35.549Z,25.94
2023-05-08T06:56:35.481Z,25.93
2023-05-08T06:57:35.517Z,25.91
2023-05-08T06:58:35.981Z,25.90
2023-05-08T06:59:35.476Z,25.90
2023-05-08T07:00:35.336Z,25.91
2023-05-08T07:01:35.459Z,25.91
2023-05-08T07:02:35.360Z,25.93
2023-05-08T07:03:35.214Z,25.92
2023-05-08T07:04:35.220Z,25.92
2023-05-08T07:05:35.155Z,25.92
2023-05-08T07:06:35.051Z,25.94
2023-05-08T07:07:35.056Z,25.95
2023-05-08T07:08:35.056Z,25.95
2023-05-08T07:09:35.942Z,25.94
2023-05-08T07:10:35.078Z,25.93
2023-05-08T07:11:35.000Z,25.93
2023-05-08T07:12:35.085Z,25.92
2023-05-08T07:13:35.030Z,25.92
2023-05-08T07:14:34.997Z,25.90
2023-05-08T07:15:34.981Z,25.88
2023-05-08T07:16:35.093Z,25.85
2023-05-08T07:17:34.922Z,25.85
2023-05-08T07:18:34.871Z,25.86
2023-05-08T07:19:34.942Z,25.87
2023-05-08T07:20:34.877Z,25.89
2023-05-08T07:21:34.884Z,25.89
2023-05-08T07:22:34.934Z,25.90
2023-05-08T07:23:34.851Z,25.91
2023-05-08T07:24:34.969Z,25.90
2023-05-08T07:25:34.863Z,25.91
2023-05-08T07:26:34.831Z,25.92
2023-05-08T07:27:34.817Z,25.92
2023-05-08T07:28:34.787Z,25.93
2023-05-08T07:29:34.798Z,25.93
2023-05-08T07:30:34.751Z,25.93
2023-05-08T07:31:34.822Z,25.91
2023-05-08T07:32:34.804Z,25.88
2023-05-08T07:33:34.721Z,25.88
2023-05-08T07:34:34.730Z,25.86
2023-05-08T07:35:34.735Z,25.87
2023-05-08T07:36:34.706Z,25.88
2023-05-08T07:37:34.647Z,25.87
2023-05-08T07:38:34.651Z,25.89
2023-05-08T07:39:34.649Z,25.91
2023-05-08T07:40:34.611Z,25.93
2023-05-08T07:41:34.640Z,25.94
2023-05-08T07:42:34.632Z,25.96
2023-05-08T07:43:34.654Z,25.98
2023-05-08T07:44:40.563Z,26.00
2023-05-08T07:45:35.989Z,25.99
2023-05-08T07:46:34.538Z,25.99
2023-05-08T07:47:34.540Z,26.00
2023-05-08T07:48:34.452Z,26.01
2023-05-08T07:49:34.415Z,26.00
2023-05-08T07:50:34.476Z,25.97
2023-05-08T07:51:34.368Z,25.98
2023-05-08T07:52:34.406Z,26.00
2023-05-08T07:53:34.259Z,26.02
2023-05-08T07:54:34.228Z,26.04
2023-05-08T07:55:34.198Z,26.07
2023-05-08T07:56:34.200Z,26.09
2023-05-08T07:57:34.215Z,26.12
2023-05-08T07:58:34.225Z,26.15
2023-05-08T07:59:34.237Z,26.19
2023-05-08T08:00:34.730Z,26.21
2023-05-08T08:01:34.202Z,26.24
2023-05-08T08:02:34.299Z,26.24
2023-05-08T08:03:34.400Z,26.23
2023-05-08T08:04:34.301Z,26.22
2023-05-08T08:05:34.489Z,26.18
2023-05-08T08:06:34.336Z,26.17
2023-05-08T08:07:34.272Z,26.14
2023-05-08T08:08:34.292Z,26.11
2023-05-08T08:09:34.279Z,26.07
2023-05-08T08:10:34.265Z,26.03
2023-05-08T08:11:34.255Z,26.01
2023-05-08T08:12:34.269Z,25.99
2023-05-08T08:13:34.396Z,25.97
2023-05-08T08:14:34.247Z,25.95
2023-05-08T08:15:34.230Z,25.93
2023-05-08T08:16:34.377Z,25.90
2023-05-08T08:17:34.307Z,25.88
2023-05-08T08:18:34.223Z,25.86
2023-05-08T08:19:34.305Z,25.85
2023-05-08T08:20:34.270Z,25.85
2023-05-08T08:21:34.171Z,25.86
2023-05-08T08:22:34.176Z,25.86
2023-05-08T08:23:34.202Z,25.87
2023-05-08T08:24:34.166Z,25.89
2023-05-08T08:25:34.151Z,25.90
2023-05-08T08:26:34.099Z,25.90
2023-05-08T08:27:34.136Z,25.91
2023-05-08T08:28:34.122Z,25.91
2023-05-08T08:29:34.118Z,25.92
2023-05-08T08:30:34.479Z,25.92
2023-05-08T08:31:34.180Z,25.93
2023-05-08T08:32:34.219Z,25.96
2023-05-08T08:33:34.076Z,25.99
2023-05-08T08:34:34.149Z,26.03
2023-05-08T08:35:34.155Z,26.07
2023-05-08T08:36:34.169Z,26.11
2023-05-08T08:37:34.163Z,26.17
2023-05-08T08:38:34.185Z,26.21
2023-05-08T08:39:34.164Z,26.25
2023-05-08T08:40:34.465Z,26.28
2023-05-08T08:41:34.215Z,26.31
2023-05-08T08:42:34.209Z,26.36
2023-05-08T08:43:34.175Z,26.38
2023-05-08T08:44:34.202Z,26.40
2023-05-08T08:45:34.479Z,26.42
2023-05-08T08:46:34.252Z,26.43
2023-05-08T08:47:34.226Z,26.46
2023-05-08T08:48:34.268Z,26.48
2023-05-08T08:49:34.174Z,26.47
2023-05-08T08:50:34.260Z,26.49
2023-05-08T08:51:34.171Z,26.51
2023-05-08T08:52:34.205Z,26.53
2023-05-08T08:53:34.204Z,26.56
2023-05-08T08:54:34.213Z,26.57
2023-05-08T08:55:34.533Z,26.59
2023-05-08T08:56:34.210Z,26.61
2023-05-08T08:57:34.220Z,26.64
2023-05-08T08:58:35.433Z,26.65
2023-05-08T08:59:34.286Z,26.66
2023-05-08T09:00:34.276Z,26.68
2023-05-08T09:01:34.357Z,26.70
2023-05-08T09:02:34.253Z,26.71
2023-05-08T09:03:34.313Z,26.68
2023-05-08T09:04:34.293Z,26.59
2023-05-08T09:05:34.213Z,26.50
2023-05-08T09:06:34.489Z,26.43
2023-05-08T09:07:34.153Z,26.36
2023-05-08T09:08:34.189Z,26.32
2023-05-08T09:09:34.262Z,26.31
2023-05-08T09:10:34.168Z,26.31
2023-05-08T09:11:34.505Z,26.32
2023-05-08T09:12:34.167Z,26.33
2023-05-08T09:13:34.229Z,26.36
2023-05-08T09:14:34.203Z,26.39
2023-05-08T09:15:34.159Z,26.40
2023-05-08T09:16:34.501Z,26.40
2023-05-08T09:17:34.306Z,26.40
2023-05-08T09:18:34.194Z,26.41
2023-05-08T09:19:34.266Z,26.41
2023-05-08T09:20:34.310Z,26.40
2023-05-08T09:21:34.497Z,26.38
2023-05-08T09:22:34.262Z,26.35
2023-05-08T09:23:34.321Z,26.32
2023-05-08T09:24:34.303Z,26.30
2023-05-08T09:25:34.279Z,26.28
2023-05-08T09:26:34.344Z,26.28
2023-05-08T09:27:34.317Z,26.27
2023-05-08T09:28:34.290Z,26.26
2023-05-08T09:29:34.378Z,26.24
2023-05-08T09:30:34.335Z,26.23
2023-05-08T09:31:34.464Z,26.22
2023-05-08T09:32:34.393Z,26.22
2023-05-08T09:33:34.366Z,26.23
2023-05-08T09:34:34.446Z,26.23
2023-05-08T09:35:34.384Z,26.24
2023-05-08T09:36:34.555Z,26.24
2023-05-08T09:37:34.431Z,26.25
2023-05-08T09:38:34.444Z,26.29
2023-05-08T09:39:34.445Z,26.27
2023-05-08T09:40:34.469Z,26.23
2023-05-08T09:41:34.532Z,26.25
2023-05-08T09:42:34.479Z,26.28
2023-05-08T09:43:34.545Z,26.31
2023-05-08T09:44:34.582Z,26.33
2023-05-08T09:45:34.562Z,26.36
2023-05-08T09:46:34.519Z,26.37
2023-05-08T09:47:34.537Z,26.40
2023-05-08T09:48:34.592Z,26.43
2023-05-08T09:49:34.597Z,26.47
2023-05-08T09:50:34.532Z,26.48
2023-05-08T09:51:34.993Z,26.52
2023-05-08T09:52:34.666Z,26.53
2023-05-08T09:53:34.502Z,26.56
2023-05-08T09:54:34.552Z,26.59
2023-05-08T09:55:34.511Z,26.61
2023-05-08T09:56:34.563Z,26.63
2023-05-08T09:57:34.492Z,26.66
2023-05-08T09:58:34.489Z,26.68
2023-05-08T09:59:34.619Z,26.70
2023-05-08T10:00:34.484Z,26.73
2023-05-08T10:01:34.570Z,26.75
2023-05-08T10:02:34.537Z,26.75
2023-05-08T10:03:34.532Z,26.77
2023-05-08T10:04:34.491Z,26.80
2023-05-08T10:05:34.590Z,26.83
2023-05-08T10:06:34.539Z,26.84
2023-05-08T10:07:34.397Z,26.85
2023-05-08T10:08:34.520Z,26.86
2023-05-08T10:09:47.020Z,26.87
2023-05-08T10:10:35.389Z,26.88
2023-05-08T10:11:34.315Z,26.89
2023-05-08T10:12:34.278Z,26.91
2023-05-08T10:13:34.270Z,26.92
2023-05-08T10:14:34.187Z,26.94
2023-05-08T10:15:34.072Z,26.96
2023-05-08T10:16:34.047Z,26.95
2023-05-08T10:17:34.005Z,26.96
2023-05-08T10:18:33.956Z,26.97
2023-05-08T10:19:33.863Z,26.99
2023-05-08T10:20:33.765Z,27.00
2023-05-08T10:21:33.730Z,27.01
2023-05-08T10:22:33.683Z,27.03
2023-05-08T10:23:33.623Z,27.03
2023-05-08T10:24:33.667Z,27.05
2023-05-08T10:25:33.543Z,27.06
2023-05-08T10:26:33.544Z,27.01
2023-05-08T10:27:33.574Z,26.98
2023-05-08T10:28:33.400Z,26.95
2023-05-08T10:29:33.374Z,26.95
2023-05-08T10:30:33.378Z,26.93
2023-05-08T10:31:33.381Z,26.95
2023-05-08T10:32:33.343Z,26.93
2023-05-08T10:33:33.279Z,26.94
2023-05-08T10:34:33.296Z,26.94
2023-05-08T10:35:33.255Z,26.96
2023-05-08T10:36:33.278Z,26.95
2023-05-08T10:37:33.199Z,26.95
2023-05-08T10:38:33.233Z,26.93
2023-05-08T10:39:33.233Z,26.92
2023-05-08T10:40:33.282Z,26.90
2023-05-08T10:41:33.198Z,26.90
2023-05-08T10:42:33.211Z,26.92
2023-05-08T10:43:33.177Z,26.91
2023-05-08T10:44:33.218Z,26.93
2023-05-08T10:45:33.172Z,26.92
2023-05-08T10:46:33.211Z,26.93
2023-05-08T10:47:33.114Z,26.93
2023-05-08T10:48:33.114Z,26.93
2023-05-08T10:49:33.084Z,26.95
2023-05-08T10:50:33.098Z,26.95
2023-05-08T10:51:33.045Z,26.96
2023-05-08T10:52:33.049Z,26.96
2023-05-08T10:53:33.006Z,26.96
2023-05-08T10:54:32.985Z,26.97
2023-05-08T10:55:32.945Z,26.97
2023-05-08T10:56:32.977Z,26.99
2023-05-08T10:57:32.944Z,26.99
2023-05-08T10:58:32.945Z,27.00
2023-05-08T10:59:32.905Z,27.01
2023-05-08T11:00:32.867Z,27.02
2023-05-08T11:01:32.922Z,26.99
2023-05-08T11:02:33.033Z,27.00
2023-05-08T11:03:33.419Z,27.00
2023-05-08T11:04:32.961Z,27.02
2023-05-08T11:05:32.786Z,27.03
2023-05-08T11:06:32.786Z,27.04
2023-05-08T11:07:33.522Z,27.04
2023-05-08T11:08:32.744Z,27.04
2023-05-08T11:09:32.733Z,27.06
2023-05-08T11:10:32.730Z,27.05
2023-05-08T11:11:32.679Z,27.04
2023-05-08T11:12:33.040Z,27.03
2023-05-08T11:13:32.671Z,27.03
2023-05-08T11:14:32.615Z,27.05
2023-05-08T11:15:32.667Z,27.08
2023-05-08T11:16:32.591Z,27.11
2023-05-08T11:17:33.056Z,27.14
2023-05-08T11:18:45.834Z,27.18
2023-05-08T11:19:33.448Z,27.22
2023-05-08T11:20:32.368Z,27.25
2023-05-08T11:21:32.329Z,27.29
2023-05-08T11:22:32.553Z,27.32
2023-05-08T11:23:32.254Z,27.35
2023-05-08T11:24:32.198Z,27.38
2023-05-08T11:25:32.122Z,27.40
2023-05-08T11:26:32.071Z,27.42
2023-05-08T11:27:32.043Z,27.47
2023-05-08T11:29:31.881Z,27.51
2023-05-08T11:30:31.840Z,27.52
2023-05-08T11:31:31.864Z,27.52
2023-05-08T11:32:32.162Z,27.50
2023-05-08T11:33:31.654Z,27.49
2023-05-08T11:34:31.599Z,27.48
2023-05-08T11:35:31.508Z,27.48
2023-05-08T11:36:31.826Z,27.47
2023-05-08T11:37:31.520Z,27.46
2023-05-08T11:38:31.431Z,27.45
2023-05-08T11:39:31.459Z,27.45
2023-05-08T11:40:31.401Z,27.44
2023-05-08T11:41:31.344Z,27.44
2023-05-08T11:42:31.356Z,27.43
2023-05-08T11:43:31.323Z,27.44
2023-05-08T11:44:31.266Z,27.43
2023-05-08T11:45:31.236Z,27.43
2023-05-08T11:46:31.264Z,27.42
2023-05-08T11:47:31.536Z,27.41
2023-05-08T11:48:31.184Z,27.40
2023-05-08T11:49:31.135Z,27.39
2023-05-08T11:50:31.076Z,27.37
2023-05-08T11:51:31.076Z,27.36
2023-05-08T11:52:31.006Z,27.35
2023-05-08T11:53:31.006Z,27.34
2023-05-08T11:54:30.968Z,27.33
2023-05-08T11:55:30.953Z,27.33
2023-05-08T11:56:30.911Z,27.32
2023-05-08T11:57:30.898Z,27.32
2023-05-08T11:58:30.842Z,27.32
2023-05-08T11:59:30.844Z,27.30
2023-05-08T12:00:30.781Z,27.30
2023-05-08T12:01:30.745Z,27.29
2023-05-08T12:02:32.643Z,27.29
2023-05-08T12:03:30.792Z,27.28
2023-05-08T12:04:30.724Z,27.28
2023-05-08T12:05:30.524Z,27.26
2023-05-08T12:06:30.498Z,27.26
2023-05-08T12:07:30.459Z,27.25
2023-05-08T12:08:30.365Z,27.25
2023-05-08T12:09:30.325Z,27.25
2023-05-08T12:10:30.250Z,27.24
2023-05-08T12:11:30.227Z,27.24
2023-05-08T12:12:30.182Z,27.23
2023-05-08T12:13:30.298Z,27.22
2023-05-08T12:14:30.055Z,27.22
2023-05-08T12:15:30.007Z,27.21
2023-05-08T12:16:29.977Z,27.20
2023-05-08T12:17:29.895Z,27.19
2023-05-08T12:18:29.852Z,27.19
2023-05-08T12:19:29.804Z,27.19
2023-05-08T12:20:31.030Z,27.19
2023-05-08T12:21:29.677Z,27.18
2023-05-08T12:22:29.642Z,27.18
2023-05-08T12:23:29.644Z,27.17
2023-05-08T12:24:29.574Z,27.17
2023-05-08T12:25:29.491Z,27.16
2023-05-08T12:26:29.491Z,27.17
2023-05-08T12:27:29.482Z,27.17
2023-05-08T12:28:29.444Z,27.17
2023-05-08T12:29:29.427Z,27.17
2023-05-08T12:30:29.375Z,27.17
2023-05-08T12:31:29.404Z,27.18
2023-05-08T12:32:29.375Z,27.17
2023-05-08T12:33:29.259Z,27.17
2023-05-08T12:34:29.263Z,27.17
2023-05-08T12:35:29.218Z,27.18
2023-05-08T12:36:29.186Z,27.18
2023-05-08T12:37:29.146Z,27.19
2023-05-08T12:38:29.116Z,27.18
2023-05-08T12:39:29.095Z,27.18
2023-05-08T12:40:29.065Z,27.18
2023-05-08T12:41:29.077Z,27.18
2023-05-08T12:42:29.012Z,27.18
2023-05-08T12:43:28.982Z,27.18
2023-05-08T12:44:28.956Z,27.17
2023-05-08T12:45:28.952Z,27.18
2023-05-08T12:46:29.049Z,27.18
2023-05-08T12:47:28.986Z,27.18
2023-05-08T12:48:28.965Z,27.19
2023-05-08T12:49:28.868Z,27.18
2023-05-08T12:50:28.886Z,27.18
2023-05-08T12:51:28.836Z,27.18
2023-05-08T12:52:28.808Z,27.18
2023-05-08T12:53:28.841Z,27.16